createdAt,value
2023-05-19T10:04:06.290Z,22.31
2023-05-19T10:07:00.291Z,23.15
2023-05-19T10:09:40.141Z,23.62
2023-05-19T10:12:19.066Z,24.38
2023-05-19T10:15:11.967Z,23.73
2023-05-19T10:17:53.292Z,24.29
2023-05-19T10:20:34.926Z,25.09
2023-05-19T10:23:30.641Z,24.95
2023-05-19T10:26:17.209Z,25.03
2023-05-19T10:29:06.044Z,25.26
2023-05-19T10:31:44.063Z,25.75
2023-05-19T10:35:11.637Z,25.90
2023-05-19T10:37:59.993Z,26.29
2023-05-19T10:41:16.690Z,25.70
2023-05-19T10:44:23.931Z,25.28
2023-05-19T10:47:05.549Z,25.41
2023-05-19T10:49:45.231Z,25.09
2023-05-19T10:52:34.593Z,25.23
2023-05-19T10:55:41.527Z,25.09
2023-05-19T10:58:16.086Z,24.98
2023-05-19T11:01:11.912Z,25.67
2023-05-19T11:04:12.486Z,25.03
2023-05-19T11:07:01.672Z,25.36
2023-05-19T11:09:43.055Z,25.50
2023-05-19T11:12:27.034Z,24.87
2023-05-19T11:15:10.568Z,25.07
2023-05-19T11:17:56.670Z,25.89
2023-05-19T11:20:47.620Z,26.35
2023-05-19T11:23:28.535Z,26.29
2023-05-19T11:26:16.041Z,26.51
2023-05-19T11:29:08.005Z,26.55
2023-05-19T11:31:50.947Z,26.84
2023-05-19T11:34:38.926Z,27.00
2023-05-19T11:37:23.813Z,27.03
2023-05-19T11:40:07.620Z,26.64
2023-05-19T11:42:45.320Z,26.76
2023-05-19T11:45:29.682Z,26.99
2023-05-19T11:48:24.114Z,26.55
2023-05-19T11:51:26.403Z,25.84
2023-05-19T11:54:00.705Z,26.05
2023-05-19T11:57:25.141Z,26.50
2023-05-19T12:00:31.162Z,26.43
2023-05-19T12:03:21.308Z,26.08
2023-05-19T12:06:17.294Z,26.15
2023-05-19T12:09:15.107Z,25.54
2023-05-19T12:12:14.971Z,25.73
2023-05-19T12:15:02.572Z,26.11
2023-05-19T12:17:46.597Z,25.41
2023-05-19T12:20:27.311Z,25.86
2023-05-19T12:23:11.606Z,26.04
2023-05-19T12:25:51.903Z,26.88
2023-05-19T12:28:52.034Z,26.36
2023-05-19T12:31:31.223Z,26.73
2023-05-19T12:34:12.018Z,26.87
2023-05-19T12:37:02.642Z,27.24
2023-05-19T12:39:44.827Z,27.06
2023-05-19T12:42:31.379Z,27.01
2023-05-19T18:51:48.968Z,18.72
2023-05-19T18:54:34.023Z,18.81
2023-05-19T18:57:26.675Z,18.81
2023-05-19T19:00:08.040Z,18.50
2023-05-19T19:02:52.317Z,18.29
2023-05-19T19:05:42.248Z,18.14
2023-05-19T19:08:36.470Z,18.16
2023-05-19T19:11:21.477Z,18.12
2023-05-19T19:14:04.717Z,17.96
2023-05-19T19:16:56.295Z,17.84
2023-05-19T19:22:53.260Z,18.21
2023-05-19T19:25:47.837Z,18.09
2023-05-19T19:28:36.583Z,17.84
2023-05-19T19:31:36.982Z,17.86
2023-05-19T19:34:21.430Z,17.85
2023-05-19T19:37:03.248Z,17.90
2023-05-19T19:39:46.774Z,17.70
2023-05-19T19:42:40.592Z,17.52
2023-05-19T19:45:12.563Z,17.07
2023-05-19T19:48:06.115Z,17.20
2023-05-19T19:50:48.012Z,16.86
2023-05-19T19:53:28.989Z,16.96
2023-05-19T19:56:21.273Z,16.91
2023-05-19T19:59:17.129Z,16.76
2023-05-19T20:02:04.031Z,16.69
2023-05-19T20:04:39.495Z,16.71
2023-05-19T20:07:19.695Z,16.52
2023-05-19T20:10:01.420Z,16.61
2023-05-19T20:12:39.443Z,16.50
2023-05-19T20:15:21.876Z,16.54
2023-05-19T20:18:06.837Z,16.40
2023-05-19T20:20:52.990Z,16.24
2023-05-19T20:23:36.657Z,16.09
2023-05-19T20:26:20.133Z,16.18
2023-05-19T20:29:12.356Z,16.16
2023-05-19T20:31:58.834Z,16.33
2023-05-19T20:34:41.852Z,16.39
2023-05-19T20:37:22.213Z,16.20
2023-05-19T20:40:01.312Z,16.26
2023-05-19T20:42:49.224Z,17.47
2023-05-19T20:45:25.891Z,17.70
2023-05-19T20:48:19.502Z,17.71
2023-05-19T20:51:01.438Z,17.69
2023-05-19T20:53:49.831Z,17.61
2023-05-19T20:56:36.821Z,17.39
2023-05-19T20:59:41.184Z,17.57
2023-05-19T21:02:30.652Z,17.40
2023-05-19T21:05:13.958Z,17.27
2023-05-19T21:10:50.999Z,17.02
2023-05-19T21:13:33.980Z,17.14
2023-05-19T21:16:20.484Z,17.39
2023-05-19T21:18:52.528Z,17.26
2023-05-19T21:21:36.206Z,17.23
2023-05-19T21:24:18.337Z,17.24
2023-05-19T21:27:02.037Z,17.35
2023-05-19T21:29:45.670Z,17.55
2023-05-19T21:32:33.541Z,17.57
2023-05-19T21:35:25.671Z,17.50
2023-05-19T21:38:22.770Z,17.20
2023-05-19T21:41:06.934Z,17.06
2023-05-19T21:44:01.654Z,17.22
2023-05-19T21:46:50.436Z,17.18
2023-05-19T21:49:29.589Z,17.12
2023-05-19T21:52:06.919Z,16.97
2023-05-19T21:55:02.300Z,17.16
2023-05-19T21:57:51.256Z,17.12
2023-05-19T22:00:36.859Z,17.14
2023-05-19T22:03:18.486Z,16.57
2023-05-19T22:06:04.164Z,16.80
2023-05-19T22:08:53.064Z,16.71
2023-05-19T22:11:30.967Z,16.77
2023-05-19T22:14:11.598Z,16.75
2023-05-19T22:16:53.116Z,16.87
2023-05-19T22:19:34.868Z,16.94
2023-05-19T22:22:15.961Z,16.81
2023-05-19T22:24:59.951Z,16.76
2023-05-19T22:27:37.874Z,17.00
2023-05-19T22:30:21.810Z,16.96
2023-05-19T22:32:59.885Z,16.81
2023-05-19T22:35:43.709Z,16.60
2023-05-19T22:38:24.115Z,16.55
2023-05-19T22:41:04.567Z,16.24
2023-05-19T22:43:45.432Z,16.31
2023-05-19T22:46:26.625Z,16.31
2023-05-19T22:49:04.343Z,16.22
2023-05-19T22:51:59.775Z,16.18
2023-05-19T22:54:42.547Z,16.17
2023-05-19T22:57:20.457Z,15.99
2023-05-19T23:00:04.540Z,15.96
2023-05-19T23:02:44.669Z,16.04
2023-05-19T23:05:28.094Z,16.10
2023-05-19T23:08:06.960Z,16.17
2023-05-19T23:10:50.236Z,16.16
2023-05-19T23:13:40.355Z,15.91
2023-05-19T23:16:34.308Z,15.97
2023-05-19T23:19:34.077Z,16.02
2023-05-19T23:22:11.948Z,15.87
2023-05-19T23:24:47.377Z,15.82
2023-05-19T23:27:25.052Z,15.61
2023-05-19T23:30:06.275Z,15.69
2023-05-19T23:33:03.825Z,15.70
2023-05-19T23:35:48.467Z,15.67
2023-05-19T23:38:29.866Z,15.56
2023-05-19T23:41:23.094Z,15.59
2023-05-19T23:44:11.759Z,15.49
2023-05-19T23:46:52.630Z,15.61
2023-05-19T23:49:43.926Z,15.55
2023-05-19T23:52:29.925Z,15.38
2023-05-19T23:55:14.631Z,15.29
2023-05-19T23:57:58.612Z,15.27
